Time;durP1;ratioP1;P1;durP2;ratioP2;P2;SDS_P1;SDS_P2;PMS_P1;PMS_P2;Temp;Humidity;BMP_temperature;BMP_pressure;BME280_temperature;BME280_humidity;BME280_pressure;Samples;Min_cycle;Max_cycle;Signal;HPM_P1;HPM_P2
2022/08/21 00:02:25;;;;;;;7.88;3.80;;;18.50;98.70;;;;;;5040999;28;20029;-84
2022/08/21 00:04:52;;;;;;;6.35;3.33;;;18.50;98.90;;;;;;5043612;28;20573;-83
2022/08/21 00:07:18;;;;;;;11.05;3.90;;;18.40;99.00;;;;;;5061374;28;20041;-83
2022/08/21 00:09:44;;;;;;;10.05;3.97;;;18.30;99.20;;;;;;5060978;28;20031;-82
2022/08/21 00:12:10;;;;;;;10.90;4.22;;;18.40;99.20;;;;;;5042557;28;20025;-83
2022/08/21 00:14:36;;;;;;;11.00;4.50;;;18.30;99.30;;;;;;5060046;28;20052;-84
2022/08/21 00:17:02;;;;;;;9.32;3.90;;;;;;;;;;5045346;28;20029;-80
2022/08/21 00:19:28;;;;;;;10.60;4.13;;;;;;;;;;5062044;28;20029;-82
2022/08/21 00:21:55;;;;;;;7.22;3.40;;;;;;;;;;5056124;28;20133;-82
2022/08/21 00:24:22;;;;;;;8.75;3.97;;;18.10;99.90;;;;;;5043980;28;20021;-84
2022/08/21 00:26:48;;;;;;;10.02;3.90;;;;;;;;;;5044717;28;20047;-82
2022/08/21 00:29:14;;;;;;;8.80;3.58;;;;;;;;;;5062056;28;20044;-85
2022/08/21 00:31:41;;;;;;;11.05;4.93;;;18.10;99.90;;;;;;5047113;28;20029;-81
2022/08/21 00:34:08;;;;;;;12.68;3.53;;;;;;;;;;5046639;28;20029;-80
2022/08/21 00:36:34;;;;;;;11.70;4.45;;;17.90;99.90;;;;;;5051090;28;20032;-81
2022/08/21 00:39:00;;;;;;;8.48;4.03;;;;;;;;;;5061223;28;20025;-82
2022/08/21 00:41:26;;;;;;;9.27;4.57;;;17.90;99.90;;;;;;5061392;28;20475;-80
2022/08/21 00:43:53;;;;;;;8.32;3.95;;;;;;;;;;5062261;28;20021;-82
2022/08/21 00:46:19;;;;;;;7.53;3.80;;;17.70;99.90;;;;;;5046865;28;20386;-83
2022/08/21 00:48:45;;;;;;;8.90;4.68;;;;;;;;;;5055509;28;20033;-83
2022/08/21 00:51:22;;;;;;;10.50;4.10;;;17.70;99.90;;;;;;5050406;28;20124;-81
2022/08/21 00:53:51;;;;;;;7.78;4.25;;;17.60;99.90;;;;;;5041407;28;20503;-79
2022/08/21 00:56:18;;;;;;;9.32;4.22;;;17.60;99.90;;;;;;5039862;28;20033;-82
2022/08/21 00:58:45;;;;;;;9.88;4.40;;;17.60;99.90;;;;;;5058582;28;20036;-82
2022/08/21 01:01:11;;;;;;;10.07;3.90;;;17.60;99.90;;;;;;5065708;28;20032;-82
2022/08/21 01:03:37;;;;;;;9.38;3.90;;;17.50;99.90;;;;;;5042771;28;20029;-81
2022/08/21 01:06:04;;;;;;;8.95;4.05;;;17.50;99.90;;;;;;5042524;28;20441;-81
2022/08/21 01:08:30;;;;;;;8.68;4.47;;;17.50;99.90;;;;;;5041862;28;20025;-82
2022/08/21 01:10:57;;;;;;;8.13;4.15;;;17.50;99.90;;;;;;5044820;28;20152;-82
2022/08/21 01:13:24;;;;;;;9.93;4.43;;;;;;;;;;5054388;28;20082;-81
2022/08/21 01:15:52;;;;;;;12.55;4.68;;;17.40;99.90;;;;;;5049097;28;20040;-82
2022/08/21 01:18:19;;;;;;;11.88;4.40;;;17.30;99.90;;;;;;5044679;28;20037;-85
2022/08/21 01:21:00;;;;;;;6.85;3.88;;;17.40;99.90;;;;;;5062031;28;20017;-83
2022/08/21 01:23:25;;;;;;;8.20;4.13;;;17.40;99.90;;;;;;5060773;28;20114;-82
2022/08/21 01:25:51;;;;;;;11.80;4.45;;;17.30;99.90;;;;;;5062816;28;20024;-80
2022/08/21 01:28:17;;;;;;;9.77;3.80;;;17.30;99.90;;;;;;5049812;28;20025;-82
2022/08/21 01:30:43;;;;;;;8.30;3.75;;;;;;;;;;5054379;28;20051;-81
2022/08/21 01:33:09;;;;;;;11.43;5.45;;;17.30;99.90;;;;;;5063761;28;20028;-83
2022/08/21 01:35:35;;;;;;;11.85;6.43;;;17.30;99.90;;;;;;5069277;28;20024;-83
2022/08/21 01:38:01;;;;;;;8.32;3.97;;;18.70;99.90;;;;;;5062130;28;20054;-82
2022/08/21 01:40:27;;;;;;;8.13;4.00;;;17.20;99.90;;;;;;5043170;28;20475;-84
2022/08/21 01:42:53;;;;;;;9.15;3.83;;;;;;;;;;5061868;28;20020;-83
2022/08/21 01:45:19;;;;;;;7.38;4.00;;;17.10;99.90;;;;;;5050864;28;20065;-82
2022/08/21 01:47:45;;;;;;;10.43;4.03;;;;;;;;;;5059299;28;20100;-81
2022/08/21 01:50:14;;;;;;;10.05;3.63;;;17.10;99.90;;;;;;5043302;28;20021;-84
2022/08/21 01:52:40;;;;;;;12.37;3.93;;;;;;;;;;5044248;28;20092;-83
2022/08/21 01:55:08;;;;;;;8.45;4.13;;;17.00;99.90;;;;;;5061547;28;20036;-82
2022/08/21 01:57:34;;;;;;;8.50;3.58;;;;;;;;;;5062482;28;20024;-81
2022/08/21 02:00:00;;;;;;;10.32;4.47;;;;;;;;;;5061918;28;20021;-82
2022/08/21 02:02:26;;;;;;;8.45;3.95;;;;;;;;;;5047105;28;20035;-85
2022/08/21 02:04:52;;;;;;;9.30;4.10;;;;;;;;;;5046951;28;20124;-82
2022/08/21 02:07:18;;;;;;;10.75;5.65;;;16.90;99.90;;;;;;5063180;28;20052;-80
2022/08/21 02:09:44;;;;;;;10.02;4.68;;;16.80;99.90;;;;;;5061632;28;20489;-81
2022/08/21 02:12:11;;;;;;;6.78;3.65;;;16.70;99.90;;;;;;5062637;28;20041;-81
2022/08/21 02:14:37;;;;;;;7.45;3.53;;;;;;;;;;5045071;28;20032;-83
2022/08/21 02:17:03;;;;;;;10.57;5.35;;;16.70;99.90;;;;;;5063564;28;20112;-79
2022/08/21 02:19:29;;;;;;;8.25;3.88;;;;;;;;;;5048686;28;20024;-82
2022/08/21 02:21:55;;;;;;;8.15;4.03;;;;;;;;;;5043758;28;20565;-82
2022/08/21 02:24:21;;;;;;;10.60;3.65;;;16.70;99.90;;;;;;5062939;28;20048;-83
2022/08/21 02:26:47;;;;;;;11.95;4.55;;;;;;;;;;5051434;28;20144;-81
2022/08/21 02:29:12;;;;;;;11.48;4.65;;;16.60;99.90;;;;;;5063915;28;20112;-83
2022/08/21 02:31:38;;;;;;;7.28;3.63;;;16.60;99.90;;;;;;5047665;28;20025;-84
2022/08/21 02:34:04;;;;;;;8.55;4.25;;;16.50;99.90;;;;;;5054626;28;20151;-82
2022/08/21 02:36:30;;;;;;;8.73;4.30;;;16.50;99.90;;;;;;5054665;28;20017;-80
2022/08/21 02:38:56;;;;;;;11.35;4.50;;;16.50;99.90;;;;;;5048202;28;20040;-83
2022/08/21 02:41:22;;;;;;;9.93;4.60;;;16.50;99.90;;;;;;5064355;28;20017;-81
2022/08/21 02:43:48;;;;;;;10.20;4.30;;;16.40;99.90;;;;;;5068774;28;20483;-84
2022/08/21 02:46:17;;;;;;;8.48;4.55;;;16.40;99.90;;;;;;5048418;28;20053;-82
2022/08/21 02:48:43;;;;;;;8.57;4.25;;;16.30;99.90;;;;;;5045461;28;20060;-83
2022/08/21 02:51:13;;;;;;;8.32;4.30;;;16.30;99.90;;;;;;5057399;28;20053;-84
2022/08/21 02:53:40;;;;;;;7.25;3.97;;;16.20;99.90;;;;;;5062025;28;20096;-82
2022/08/21 02:56:10;;;;;;;9.57;4.57;;;16.20;99.90;;;;;;5044323;28;20079;-81
2022/08/21 02:58:41;;;;;;;7.50;3.80;;;16.10;99.90;;;;;;5046899;28;20051;-81
2022/08/21 03:01:09;;;;;;;7.90;3.85;;;16.10;99.90;;;;;;5063156;28;20025;-82
2022/08/21 03:03:37;;;;;;;10.05;4.30;;;16.10;99.90;;;;;;5047521;28;20017;-82
2022/08/21 03:06:04;;;;;;;8.40;4.20;;;16.10;99.90;;;;;;5046145;28;20502;-83
2022/08/21 03:08:30;;;;;;;8.30;4.18;;;16.00;99.90;;;;;;5048717;28;20017;-81
2022/08/21 03:10:56;;;;;;;7.45;3.58;;;16.00;99.90;;;;;;5062786;28;20036;-81
2022/08/21 03:13:22;;;;;;;7.30;3.95;;;16.10;99.90;;;;;;5061486;28;20491;-83
2022/08/21 03:15:49;;;;;;;9.82;4.25;;;16.00;99.90;;;;;;5061976;28;20048;-83
2022/08/21 03:18:15;;;;;;;8.02;4.20;;;16.00;99.90;;;;;;5050094;28;20058;-82
2022/08/21 03:20:42;;;;;;;10.65;4.10;;;16.10;99.90;;;;;;5061625;28;20526;-82
2022/08/21 03:23:09;;;;;;;6.82;3.70;;;16.00;99.90;;;;;;5047965;28;20017;-82
2022/08/21 03:25:35;;;;;;;7.55;3.97;;;;;;;;;;5049336;28;20052;-83
2022/08/21 03:28:03;;;;;;;9.32;4.13;;;16.00;99.90;;;;;;5061801;28;20395;-85
2022/08/21 03:30:31;;;;;;;9.23;4.40;;;16.00;99.90;;;;;;5060703;28;20033;-82
2022/08/21 03:32:57;;;;;;;7.85;3.92;;;;;;;;;;5061005;28;20053;-84
2022/08/21 03:35:23;;;;;;;6.68;3.70;;;15.90;99.90;;;;;;5061834;28;20029;-80
2022/08/21 03:37:48;;;;;;;13.40;4.80;;;16.00;99.90;;;;;;5052850;28;20032;-83
2022/08/21 03:40:16;;;;;;;10.50;4.30;;;16.00;99.90;;;;;;5047628;28;20108;-83
2022/08/21 03:42:42;;;;;;;11.52;4.20;;;16.00;99.90;;;;;;5040184;28;20044;-82
2022/08/21 03:45:08;;;;;;;9.20;4.15;;;16.00;99.90;;;;;;5059247;28;20025;-82
2022/08/21 03:47:34;;;;;;;9.77;4.63;;;16.00;99.90;;;;;;5056538;28;20044;-83
2022/08/21 03:50:01;;;;;;;11.43;4.00;;;16.00;99.90;;;;;;5062059;28;20095;-84
2022/08/21 03:52:26;;;;;;;8.95;3.80;;;16.00;99.90;;;;;;5057655;28;20025;-83
2022/08/21 03:54:52;;;;;;;10.02;4.30;;;;;;;;;;5039884;28;20086;-83
2022/08/21 03:57:18;;;;;;;9.30;4.20;;;16.00;99.90;;;;;;5060046;28;20028;-85
2022/08/21 03:59:44;;;;;;;8.63;3.97;;;15.90;99.90;;;;;;5038782;28;20025;-81
2022/08/21 04:02:10;;;;;;;8.32;3.85;;;15.70;99.90;;;;;;5054232;28;20021;-84
2022/08/21 04:04:36;;;;;;;8.68;3.92;;;;;;;;;;5052388;28;20032;-82
2022/08/21 04:07:02;;;;;;;8.88;3.58;;;15.60;99.90;;;;;;5041626;28;20037;-81
2022/08/21 04:09:29;;;;;;;9.30;4.18;;;15.50;99.90;;;;;;5058276;28;20123;-80
2022/08/21 04:11:56;;;;;;;8.80;3.83;;;;;;;;;;5057976;28;20024;-81
2022/08/21 04:14:22;;;;;;;8.88;3.92;;;15.60;99.90;;;;;;5042762;28;20033;-81
2022/08/21 04:16:48;;;;;;;6.55;3.70;;;15.40;99.90;;;;;;5058036;28;20406;-83
2022/08/21 04:19:14;;;;;;;9.57;4.60;;;15.20;99.90;;;;;;5054397;28;20024;-83
2022/08/21 04:21:40;;;;;;;10.23;4.38;;;15.20;99.90;;;;;;5057967;28;20049;-83
2022/08/21 04:24:09;;;;;;;8.32;4.20;;;15.30;99.90;;;;;;5056458;28;20031;-83
2022/08/21 04:26:35;;;;;;;6.53;3.92;;;;;;;;;;5044326;28;20025;-84
2022/08/21 04:29:01;;;;;;;11.40;3.78;;;;;;;;;;5058244;28;20029;-82
2022/08/21 04:31:28;;;;;;;10.25;4.13;;;;;;;;;;5058111;28;20749;-82
2022/08/21 04:33:54;;;;;;;8.52;3.90;;;;;;;;;;5058970;28;20088;-82
2022/08/21 04:36:20;;;;;;;8.82;3.88;;;15.30;99.90;;;;;;5058211;28;20021;-82
2022/08/21 04:38:46;;;;;;;7.70;4.07;;;;;;;;;;5039916;28;20486;-82
2022/08/21 04:41:12;;;;;;;7.53;3.65;;;15.30;99.90;;;;;;5030697;28;20136;-82
2022/08/21 04:43:38;;;;;;;9.98;4.10;;;15.30;99.90;;;;;;5060739;28;20028;-79
2022/08/21 04:46:05;;;;;;;7.97;4.38;;;;;;;;;;5058523;28;20141;-80
2022/08/21 04:48:32;;;;;;;12.32;4.13;;;15.30;99.90;;;;;;5058556;28;20047;-83
2022/08/21 04:51:07;;;;;;;9.70;3.95;;;15.40;99.90;;;;;;5059541;28;20029;-82
2022/08/21 04:53:44;;;;;;;8.48;3.70;;;15.40;99.90;;;;;;5057487;28;20108;-81
2022/08/21 04:56:23;;;;;;;7.28;3.88;;;15.40;99.90;;;;;;5040045;28;20505;-81
2022/08/21 04:58:52;;;;;;;7.15;4.15;;;15.50;99.90;;;;;;5030125;28;20033;-82
2022/08/21 05:01:24;;;;;;;10.15;3.90;;;15.40;99.90;;;;;;5046621;28;20024;-84
2022/08/21 05:03:53;;;;;;;9.82;4.20;;;15.40;99.90;;;;;;5057909;28;20111;-81
2022/08/21 05:06:19;;;;;;;9.20;4.10;;;15.40;99.90;;;;;;5058863;28;20055;-82
2022/08/21 05:08:48;;;;;;;9.73;4.93;;;15.40;99.90;;;;;;5059535;28;20025;-82
2022/08/21 05:11:14;;;;;;;10.25;4.10;;;16.80;99.90;;;;;;5042455;28;20036;-82
2022/08/21 05:13:43;;;;;;;8.48;4.00;;;15.40;99.90;;;;;;5058169;28;20029;-81
2022/08/21 05:16:09;;;;;;;7.78;3.92;;;15.40;99.90;;;;;;5059643;28;20025;-83
2022/08/21 05:18:35;;;;;;;7.93;3.97;;;16.00;99.90;;;;;;5056237;28;20025;-81
2022/08/21 05:21:00;;;;;;;9.88;4.13;;;15.50;99.90;;;;;;5048462;28;20083;-81
2022/08/21 05:23:26;;;;;;;9.00;4.32;;;17.70;99.90;;;;;;5041584;28;20494;-82
2022/08/21 05:25:55;;;;;;;9.57;3.95;;;15.30;99.90;;;;;;5049653;28;20238;-84
2022/08/21 05:28:21;;;;;;;8.82;4.32;;;15.50;99.90;;;;;;5047259;28;20021;-82
2022/08/21 05:30:47;;;;;;;10.93;3.92;;;15.20;99.90;;;;;;5044276;28;20116;-80
2022/08/21 05:33:13;;;;;;;14.60;4.80;;;;;;;;;;5062450;28;20094;-83
2022/08/21 05:35:40;;;;;;;13.88;4.38;;;15.30;99.90;;;;;;5062264;28;20029;-79
2022/08/21 05:38:05;;;;;;;8.10;4.80;;;15.30;99.90;;;;;;5042138;28;20044;-82
2022/08/21 05:40:32;;;;;;;11.73;4.78;;;17.40;99.90;;;;;;5058427;28;20021;-85
2022/08/21 05:42:58;;;;;;;14.43;5.20;;;15.40;99.90;;;;;;5063089;28;20025;-83
2022/08/21 05:45:27;;;;;;;7.07;4.32;;;15.30;99.90;;;;;;5043854;28;20021;-84
2022/08/21 05:47:54;;;;;;;10.15;4.93;;;15.40;99.90;;;;;;5060654;28;20094;-81
2022/08/21 05:50:19;;;;;;;12.45;5.07;;;15.40;99.90;;;;;;5058891;28;20094;-83
2022/08/21 05:52:45;;;;;;;7.75;4.22;;;15.50;99.90;;;;;;5040649;28;20025;-81
2022/08/21 05:55:11;;;;;;;11.98;4.78;;;15.50;99.90;;;;;;5058879;28;20033;-84
2022/08/21 05:57:36;;;;;;;14.88;5.50;;;15.60;99.90;;;;;;5063331;28;20324;-81
2022/08/21 06:00:04;;;;;;;9.07;4.63;;;15.70;99.90;;;;;;5064871;28;20100;-79
2022/08/21 06:02:30;;;;;;;12.30;4.15;;;15.70;99.90;;;;;;5044413;28;20086;-84
2022/08/21 06:04:57;;;;;;;12.43;4.63;;;15.90;99.90;;;;;;5064508;28;20075;-81
2022/08/21 06:07:22;;;;;;;14.52;5.32;;;15.90;99.90;;;;;;5064497;28;20024;-85
2022/08/21 06:09:48;;;;;;;10.48;4.40;;;16.00;99.90;;;;;;5063426;28;20533;-78
2022/08/21 06:12:14;;;;;;;9.20;4.70;;;16.10;99.90;;;;;;5064761;28;20029;-81
2022/08/21 06:14:41;;;;;;;10.65;5.00;;;16.10;99.90;;;;;;5047899;28;20059;-81
2022/08/21 06:17:10;;;;;;;10.32;4.43;;;16.20;99.90;;;;;;5046979;28;20041;-83
2022/08/21 06:19:36;;;;;;;10.95;4.55;;;16.20;99.90;;;;;;5059491;28;20058;-84
2022/08/21 06:22:03;;;;;;;8.70;4.28;;;16.30;99.90;;;;;;5061501;28;20028;-84
2022/08/21 06:24:29;;;;;;;10.25;4.63;;;16.50;99.90;;;;;;5064056;28;20032;-84
2022/08/21 06:26:56;;;;;;;13.68;4.60;;;16.50;99.90;;;;;;5049859;28;20136;-83
2022/08/21 06:29:22;;;;;;;12.00;5.07;;;16.50;99.90;;;;;;5050954;28;20040;-84
2022/08/21 06:31:51;;;;;;;15.00;5.10;;;16.60;99.90;;;;;;5041924;28;20189;-83
2022/08/21 06:34:17;;;;;;;12.27;4.88;;;17.10;99.90;;;;;;5047984;28;20414;-81
2022/08/21 06:36:42;;;;;;;10.00;4.85;;;16.60;99.90;;;;;;5045835;28;20029;-80
2022/08/21 06:39:08;;;;;;;10.50;5.10;;;16.60;99.90;;;;;;5039764;28;20443;-84
2022/08/21 06:41:34;;;;;;;12.50;5.18;;;;;;;;;;5058541;28;20016;-82
2022/08/21 06:44:00;;;;;;;12.05;5.18;;;;;;;;;;5061843;28;20264;-84
2022/08/21 06:46:28;;;;;;;10.73;4.43;;;16.90;99.90;;;;;;5061041;28;20056;-83
2022/08/21 06:48:55;;;;;;;10.73;4.97;;;17.00;99.90;;;;;;5048217;28;20079;-82
2022/08/21 06:51:21;;;;;;;10.68;4.60;;;17.00;99.90;;;;;;5045410;28;20052;-82
2022/08/21 06:53:46;;;;;;;8.98;5.03;;;19.70;99.90;;;;;;5044610;28;20025;-84
2022/08/21 06:56:12;;;;;;;8.82;4.90;;;17.50;99.90;;;;;;5045512;28;20430;-80
2022/08/21 06:58:38;;;;;;;10.45;5.22;;;17.50;99.90;;;;;;5046199;28;20167;-84
2022/08/21 07:01:04;;;;;;;12.75;4.55;;;17.70;99.90;;;;;;5046464;28;20048;-81
2022/08/21 07:03:36;;;;;;;13.70;4.95;;;17.70;99.90;;;;;;5066224;28;20021;-82
2022/08/21 07:06:04;;;;;;;9.77;5.28;;;17.70;99.90;;;;;;5057508;28;20498;-81
2022/08/21 07:08:30;;;;;;;10.77;4.75;;;;;;;;;;5048370;28;20051;-82
2022/08/21 07:10:58;;;;;;;13.65;5.25;;;18.00;99.90;;;;;;5060799;28;20057;-81
2022/08/21 07:13:26;;;;;;;13.27;5.53;;;18.00;99.90;;;;;;5050032;28;20120;-82
2022/08/21 07:15:51;;;;;;;13.80;5.63;;;18.40;99.90;;;;;;5048602;28;20040;-83
2022/08/21 07:18:17;;;;;;;8.68;4.85;;;18.40;99.90;;;;;;5049612;28;20029;-83
2022/08/21 07:20:43;;;;;;;13.38;5.10;;;;;;;;;;5043742;28;20048;-81
2022/08/21 07:23:16;;;;;;;11.32;4.88;;;18.70;99.90;;;;;;5047929;28;20028;-86
2022/08/21 07:25:41;;;;;;;14.00;5.43;;;19.90;99.90;;;;;;5067283;28;20119;-83
2022/08/21 07:28:07;;;;;;;9.88;4.68;;;;;;;;;;5054465;28;20025;-84
2022/08/21 07:30:33;;;;;;;10.57;4.45;;;;;;;;;;5033839;28;20029;-83
2022/08/21 07:32:59;;;;;;;18.58;6.00;;;19.10;99.90;;;;;;5055748;28;20016;-83
2022/08/21 07:35:25;;;;;;;9.60;4.20;;;19.30;99.90;;;;;;5051101;28;20070;-84
2022/08/21 07:37:51;;;;;;;8.20;4.47;;;;;;;;;;5067313;28;20044;-84
2022/08/21 07:40:17;;;;;;;9.05;4.68;;;19.50;99.90;;;;;;5049818;28;20085;-84
2022/08/21 07:42:44;;;;;;;11.45;4.60;;;19.80;99.90;;;;;;5060026;28;20029;-85
2022/08/21 07:45:11;;;;;;;10.20;4.63;;;19.70;99.90;;;;;;5055529;28;20120;-82
2022/08/21 07:47:38;;;;;;;8.88;4.38;;;20.20;99.90;;;;;;5058298;28;20037;-83
2022/08/21 07:50:05;;;;;;;9.73;4.47;;;20.20;99.90;;;;;;5063380;28;20448;-83
2022/08/21 07:52:32;;;;;;;8.73;3.90;;;20.40;99.90;;;;;;5049198;28;20024;-84
2022/08/21 07:54:58;;;;;;;10.75;3.97;;;20.60;99.90;;;;;;5063045;28;20032;-84
2022/08/21 07:57:23;;;;;;;8.05;3.50;;;20.70;99.90;;;;;;5046185;28;20033;-84
2022/08/21 07:59:49;;;;;;;6.22;3.35;;;20.70;99.90;;;;;;5074072;28;20025;-85
2022/08/21 08:02:29;;;;;;;8.55;3.55;;;20.90;99.30;;;;;;5037226;28;20028;-85
2022/08/21 08:05:03;;;;;;;9.93;3.78;;;21.10;98.80;;;;;;5063140;28;20040;-84
2022/08/21 08:07:28;;;;;;;8.02;3.67;;;21.20;98.20;;;;;;5063046;28;20033;-85
2022/08/21 08:09:54;;;;;;;10.63;3.30;;;21.20;98.10;;;;;;5046562;28;20025;-84
2022/08/21 08:12:20;;;;;;;10.18;3.60;;;21.30;98.00;;;;;;5065231;28;20041;-84
2022/08/21 08:14:46;;;;;;;12.43;3.65;;;21.20;97.90;;;;;;5052084;28;20032;-84
2022/08/21 08:17:13;;;;;;;9.35;3.80;;;;;;;;;;5062894;28;20029;-85
2022/08/21 08:19:39;;;;;;;9.20;3.38;;;21.60;97.30;;;;;;5070183;28;20292;-85
2022/08/21 08:22:19;;;;;;;8.57;3.47;;;23.20;97.20;;;;;;5056173;28;20249;-82
2022/08/21 08:24:46;;;;;;;8.75;2.95;;;21.80;96.70;;;;;;5044727;28;20079;-84
2022/08/21 08:27:12;;;;;;;8.35;3.00;;;21.90;95.80;;;;;;5045506;28;20024;-82
2022/08/21 08:29:38;;;;;;;9.95;3.10;;;22.00;96.30;;;;;;5041047;28;20494;-83
2022/08/21 08:32:07;;;;;;;11.15;3.33;;;22.20;95.80;;;;;;5046630;28;20502;-84
2022/08/21 08:34:33;;;;;;;9.60;3.40;;;;;;;;;;5042511;28;20032;-82
2022/08/21 08:36:58;;;;;;;8.80;3.38;;;22.60;95.00;;;;;;5044308;28;20018;-82
2022/08/21 08:39:25;;;;;;;8.88;3.53;;;22.80;94.90;;;;;;5048960;28;20035;-82
2022/08/21 08:41:59;;;;;;;10.05;3.15;;;22.80;94.30;;;;;;5041845;28;20068;-84
2022/08/21 08:44:25;;;;;;;11.07;3.50;;;22.90;93.80;;;;;;5061144;28;20056;-84
2022/08/21 08:46:51;;;;;;;10.60;3.50;;;;;;;;;;5047937;28;20036;-82
2022/08/21 08:49:37;;;;;;;7.72;2.83;;;23.20;93.10;;;;;;5059680;28;20387;-82
2022/08/21 08:52:30;;;;;;;8.95;3.22;;;23.40;92.40;;;;;;5060422;28;20025;-82
2022/08/21 08:55:16;;;;;;;6.13;2.92;;;23.50;92.30;;;;;;5034091;28;20087;-83
2022/08/21 08:57:45;;;;;;;7.70;3.35;;;23.80;91.40;;;;;;5044412;28;20029;-84
2022/08/21 09:00:14;;;;;;;6.97;3.00;;;23.90;90.70;;;;;;5060720;28;20025;-81
2022/08/21 09:02:43;;;;;;;8.05;3.22;;;24.00;90.60;;;;;;5045357;28;20120;-83
2022/08/21 09:05:27;;;;;;;8.95;3.08;;;24.40;90.60;;;;;;5047494;28;20056;-83
2022/08/21 09:08:18;;;;;;;5.95;2.60;;;24.40;88.70;;;;;;5047864;28;20048;-84
2022/08/21 09:11:03;;;;;;;7.13;3.22;;;24.50;89.00;;;;;;5044644;28;20025;-82
2022/08/21 09:14:04;;;;;;;9.07;3.33;;;24.70;88.60;;;;;;5051927;28;20017;-83
2022/08/21 09:17:06;;;;;;;11.25;3.28;;;24.90;87.10;;;;;;5060270;28;20376;-83
2022/08/21 09:19:40;;;;;;;9.35;3.35;;;25.10;84.50;;;;;;5049095;28;20028;-84
2022/08/21 09:22:31;;;;;;;7.43;2.58;;;25.10;84.90;;;;;;5055844;28;20025;-82
2022/08/21 09:25:22;;;;;;;6.20;2.88;;;25.20;85.30;;;;;;5062815;28;20029;-84
2022/08/21 09:27:48;;;;;;;8.40;2.67;;;25.20;82.50;;;;;;5061988;28;20108;-83
2022/08/21 09:30:14;;;;;;;7.82;2.50;;;24.90;83.60;;;;;;5063010;28;20042;-84
2022/08/21 09:32:41;;;;;;;8.88;2.53;;;25.00;83.50;;;;;;5064401;28;20558;-82
2022/08/21 09:35:14;;;;;;;9.30;2.70;;;25.10;83.40;;;;;;5047799;28;20064;-83
2022/08/21 09:38:06;;;;;;;7.90;2.30;;;25.20;82.60;;;;;;5047756;28;20475;-83
2022/08/21 09:40:47;;;;;;;8.85;2.65;;;25.30;82.40;;;;;;5052610;28;20043;-83
2022/08/21 09:43:22;;;;;;;8.75;2.95;;;25.50;81.30;;;;;;5048857;28;20358;-82
2022/08/21 09:46:01;;;;;;;10.15;2.50;;;26.00;78.70;;;;;;5057194;28;20075;-83
2022/08/21 09:48:26;;;;;;;8.68;2.25;;;26.00;79.10;;;;;;5039700;28;20367;-81
2022/08/21 09:50:53;;;;;;;7.88;2.17;;;26.20;78.30;;;;;;5050532;28;20032;-82
2022/08/21 09:53:26;;;;;;;4.72;2.10;;;26.20;77.00;;;;;;5056541;28;20021;-81
2022/08/21 09:58:44;;;;;;;6.85;2.22;;;26.00;75.50;;;;;;5046885;28;20071;-82
2022/08/21 10:01:28;;;;;;;6.82;2.42;;;26.00;76.20;;;;;;5052858;28;20025;-81
2022/08/21 10:04:13;;;;;;;8.43;2.78;;;26.10;76.40;;;;;;5032523;28;20032;-81
2022/08/21 10:06:39;;;;;;;8.02;2.50;;;26.40;74.90;;;;;;5045365;28;20033;-81
2022/08/21 10:09:18;;;;;;;7.97;2.75;;;26.50;75.00;;;;;;5059477;28;20478;-82
2022/08/21 10:11:51;;;;;;;6.28;2.28;;;26.60;73.00;;;;;;5058392;28;20043;-81
2022/08/21 10:14:42;;;;;;;5.28;2.20;;;27.00;72.50;;;;;;5055257;28;20029;-81
2022/08/21 10:17:37;;;;;;;5.32;2.60;;;27.00;71.30;;;;;;5050753;28;20113;-83
2022/08/21 10:20:21;;;;;;;7.90;2.58;;;26.90;72.70;;;;;;5061325;28;20025;-82
2022/08/21 10:23:07;;;;;;;6.57;2.17;;;26.90;72.60;;;;;;5059773;28;20017;-80
2022/08/21 10:25:42;;;;;;;7.32;2.70;;;27.00;71.50;;;;;;5059784;28;20040;-81
2022/08/21 10:28:39;;;;;;;6.35;2.67;;;27.00;71.10;;;;;;5043545;28;20025;-80
2022/08/21 10:31:16;;;;;;;7.15;2.45;;;27.00;71.20;;;;;;5057086;28;20501;-80
2022/08/21 10:33:57;;;;;;;6.38;1.98;;;28.40;71.90;;;;;;5048134;28;20060;-82
2022/08/21 10:36:39;;;;;;;5.57;2.20;;;27.10;69.50;;;;;;5050604;28;20028;-81
2022/08/21 10:39:16;;;;;;;7.38;2.70;;;27.10;69.50;;;;;;5047565;28;20025;-80
2022/08/21 10:42:07;;;;;;;5.07;2.05;;;27.00;68.90;;;;;;5049413;28;20025;-82
2022/08/21 10:44:52;;;;;;;6.97;2.25;;;26.70;69.00;;;;;;5061827;28;20035;-83
2022/08/21 10:47:46;;;;;;;7.45;2.38;;;27.00;69.70;;;;;;5045089;28;20033;-81
2022/08/21 10:50:22;;;;;;;6.63;2.60;;;27.10;68.70;;;;;;5057495;28;20060;-81
2022/08/21 10:52:58;;;;;;;8.40;2.70;;;27.40;67.20;;;;;;5040595;28;20021;-81
2022/08/21 10:55:31;;;;;;;6.68;2.50;;;27.40;67.30;;;;;;5051456;28;20029;-81
2022/08/21 10:58:09;;;;;;;7.57;2.47;;;27.50;66.60;;;;;;5058129;28;20025;-81
2022/08/21 11:00:48;;;;;;;4.88;1.67;;;27.60;61.30;;;;;;5059653;28;20563;-82
2022/08/21 11:03:19;;;;;;;4.70;2.05;;;27.70;60.40;;;;;;5061862;28;20049;-81
2022/08/21 11:05:52;;;;;;;5.65;2.00;;;27.70;60.70;;;;;;5062938;28;20024;-82
2022/08/21 11:08:31;;;;;;;5.57;2.30;;;27.80;60.40;;;;;;5054502;28;20020;-80
2022/08/21 11:11:14;;;;;;;8.48;2.47;;;27.80;60.40;;;;;;5062044;28;20115;-82
2022/08/21 11:13:48;;;;;;;5.90;2.13;;;28.00;61.00;;;;;;5038503;28;20059;-82
2022/08/21 11:16:44;;;;;;;8.98;3.75;;;28.20;61.80;;;;;;5061111;28;20036;-84
2022/08/21 11:19:19;;;;;;;7.05;2.90;;;28.30;63.60;;;;;;5044165;28;20021;-82
2022/08/21 11:21:53;;;;;;;8.63;3.00;;;28.30;64.20;;;;;;5044584;28;20044;-82
2022/08/21 11:24:44;;;;;;;6.00;2.60;;;28.30;64.20;;;;;;5058147;28;20520;-84
2022/08/21 11:27:39;;;;;;;9.13;2.70;;;28.00;64.30;;;;;;5051209;28;20051;-81
2022/08/21 11:30:06;;;;;;;8.50;3.30;;;27.90;64.80;;;;;;5062428;28;20098;-84
2022/08/21 11:32:41;;;;;;;7.47;3.33;;;27.90;65.00;;;;;;5052913;28;20048;-84
2022/08/21 11:35:28;;;;;;;9.68;3.10;;;27.70;62.70;;;;;;5051562;28;20501;-82
2022/08/21 11:38:12;;;;;;;7.00;3.05;;;27.60;63.10;;;;;;5063329;28;20025;-83
2022/08/21 11:41:08;;;;;;;9.07;2.70;;;27.70;64.00;;;;;;5053939;28;20020;-82
2022/08/21 11:43:38;;;;;;;10.10;3.60;;;27.60;62.90;;;;;;5060727;28;20040;-84
2022/08/21 11:46:25;;;;;;;7.15;2.55;;;27.70;63.90;;;;;;5057246;28;20355;-83
2022/08/21 11:49:09;;;;;;;5.93;2.50;;;27.80;63.30;;;;;;5050055;28;20021;-83
2022/08/21 11:51:53;;;;;;;9.15;3.78;;;27.90;62.50;;;;;;5041589;28;20043;-82
2022/08/21 11:54:27;;;;;;;9.30;2.97;;;28.00;61.80;;;;;;5059942;28;20009;-83
2022/08/21 11:57:08;;;;;;;7.50;3.08;;;28.00;61.60;;;;;;5066248;28;20033;-81
2022/08/21 11:59:42;;;;;;;9.23;3.50;;;28.10;62.30;;;;;;5047260;28;20396;-83
2022/08/21 12:02:15;;;;;;;9.90;3.85;;;28.00;62.40;;;;;;5065421;28;20378;-81
2022/08/21 12:04:54;;;;;;;6.38;2.70;;;28.00;62.90;;;;;;5049725;28;20029;-83
2022/08/21 12:07:36;;;;;;;7.43;2.50;;;28.10;61.70;;;;;;5066450;28;20028;-83
2022/08/21 12:10:07;;;;;;;9.55;3.75;;;28.00;62.50;;;;;;5062690;28;20268;-84
2022/08/21 12:12:36;;;;;;;10.95;3.47;;;28.20;61.80;;;;;;5049348;28;20118;-82
2022/08/21 12:15:26;;;;;;;7.43;2.93;;;28.10;61.40;;;;;;5048345;28;20044;-81
2022/08/21 12:18:19;;;;;;;6.97;2.78;;;28.00;61.60;;;;;;5058274;28;20338;-82
2022/08/21 12:20:59;;;;;;;7.13;2.97;;;28.20;61.60;;;;;;5063428;28;20036;-83
2022/08/21 12:23:27;;;;;;;;;;;28.20;61.60;;;;;;5048918;28;20036;-82
2022/08/21 12:26:13;;;;;;;6.75;2.90;;;28.60;60.60;;;;;;5063149;28;19909;-85
2022/08/21 12:28:40;;;;;;;6.45;3.05;;;28.70;60.80;;;;;;5049690;28;20029;-83
2022/08/21 12:31:18;;;;;;;8.75;3.72;;;28.70;59.90;;;;;;5051302;28;20057;-83
2022/08/21 12:33:51;;;;;;;5.30;2.80;;;28.70;59.80;;;;;;5047769;28;20028;-83
2022/08/21 12:36:25;;;;;;;6.55;3.38;;;28.70;59.20;;;;;;5060403;28;20119;-82
2022/08/21 12:39:06;;;;;;;7.10;2.78;;;28.80;59.00;;;;;;5055942;28;20033;-81
2022/08/21 12:41:45;;;;;;;6.35;2.80;;;28.50;58.50;;;;;;5049623;28;20338;-84
2022/08/21 12:44:15;;;;;;;6.63;3.17;;;28.40;58.80;;;;;;5055065;28;20025;-80
2022/08/21 12:46:46;;;;;;;7.03;2.95;;;;;;;;;;5060636;28;20033;-84
2022/08/21 12:49:36;;;;;;;8.10;3.38;;;28.80;59.30;;;;;;5030045;28;20546;-81
2022/08/21 12:52:11;;;;;;;9.15;3.00;;;;;;;;;;5060654;28;20021;-82
2022/08/21 12:54:41;;;;;;;7.53;3.08;;;29.00;59.00;;;;;;5062191;28;20035;-82
2022/08/21 12:57:08;;;;;;;7.00;2.70;;;29.10;57.90;;;;;;5043667;28;20025;-82
2022/08/21 12:59:38;;;;;;;6.82;3.15;;;29.10;58.30;;;;;;5061321;28;20083;-83
2022/08/21 13:02:18;;;;;;;9.15;3.22;;;29.00;57.80;;;;;;5054579;28;20028;-84
2022/08/21 13:04:45;;;;;;;8.25;3.13;;;29.00;58.30;;;;;;5046041;28;20021;-81
2022/08/21 13:07:15;;;;;;;6.50;2.70;;;29.20;58.20;;;;;;5041633;28;20060;-82
2022/08/21 13:09:58;;;;;;;8.20;2.78;;;29.20;58.20;;;;;;5061164;28;20095;-81
2022/08/21 13:12:24;;;;;;;8.88;3.15;;;;;;;;;;5062150;28;20116;-82
2022/08/21 13:14:55;;;;;;;5.32;2.60;;;29.40;57.50;;;;;;5061575;28;20063;-85
2022/08/21 13:17:23;;;;;;;8.00;2.75;;;29.50;57.20;;;;;;5063536;28;20047;-85
2022/08/21 13:20:01;;;;;;;5.55;2.33;;;29.40;57.70;;;;;;5065237;28;20048;-84
2022/08/21 13:22:28;;;;;;;5.63;2.58;;;29.50;57.20;;;;;;5065206;28;20021;-84